createdAt,value
2023-04-10T00:02:06.676Z,98.10
2023-04-10T00:04:35.884Z,98.20
2023-04-10T00:07:23.407Z,98.30
2023-04-10T00:09:52.393Z,98.50
2023-04-10T00:12:21.438Z,98.70
2023-04-10T00:14:50.562Z,98.80
2023-04-10T00:17:20.928Z,99.10
2023-04-10T00:19:49.982Z,98.90
2023-04-10T00:22:18.810Z,99.00
2023-04-10T00:24:47.754Z,99.30
2023-04-10T00:27:16.776Z,99.40
2023-04-10T00:29:45.638Z,99.40
2023-04-10T00:32:14.689Z,99.40
2023-04-10T00:34:45.504Z,99.30
2023-04-10T00:37:14.475Z,99.30
2023-04-10T00:39:43.395Z,99.30
2023-04-10T00:42:12.335Z,99.40
2023-04-10T00:44:41.688Z,99.40
2023-04-10T00:47:10.582Z,99.50
2023-04-10T00:49:39.872Z,99.60
2023-04-10T00:52:10.790Z,99.70
2023-04-10T00:54:39.815Z,99.80
2023-04-10T00:57:09.353Z,99.80
2023-04-10T00:59:38.841Z,99.80
2023-04-10T01:02:09.240Z,99.80
2023-04-10T01:04:38.517Z,99.60
2023-04-10T01:07:19.119Z,99.60
2023-04-10T01:09:54.546Z,99.60
2023-04-10T01:12:39.901Z,99.60
2023-04-10T01:15:12.964Z,99.80
2023-04-10T01:17:47.652Z,99.90
2023-04-10T01:20:22.003Z,99.90
2023-04-10T01:23:23.103Z,99.90
2023-04-10T01:25:58.244Z,99.90
2023-04-10T01:29:00.675Z,99.90
2023-04-10T01:31:38.958Z,99.90
2023-04-10T01:34:11.884Z,99.90
2023-04-10T01:36:48.916Z,99.90
2023-04-10T01:39:21.023Z,99.90
2023-04-10T01:41:53.609Z,99.90
2023-04-10T01:44:45.700Z,99.90
2023-04-10T01:47:18.478Z,99.90
2023-04-10T01:49:50.541Z,99.90
2023-04-10T01:52:20.600Z,99.90
2023-04-10T01:54:56.225Z,99.90
2023-04-10T01:57:36.111Z,99.90
2023-04-10T02:00:06.398Z,99.90
2023-04-10T02:02:46.123Z,99.90
2023-04-10T02:05:18.678Z,99.90
2023-04-10T02:07:56.538Z,99.90
2023-04-10T02:10:50.293Z,99.90
2023-04-10T02:13:23.738Z,99.90
2023-04-10T02:15:54.506Z,99.90
2023-04-10T02:18:25.697Z,99.90
2023-04-10T02:20:56.450Z,99.90
2023-04-10T02:23:25.616Z,99.90
2023-04-10T02:25:57.317Z,99.90
2023-04-10T02:28:26.515Z,99.90
2023-04-10T02:30:55.489Z,99.90
2023-04-10T02:33:26.203Z,99.90
2023-04-10T02:35:55.181Z,99.90
2023-04-10T02:38:24.459Z,99.90
2023-04-10T02:40:53.767Z,99.90
2023-04-10T02:43:22.838Z,99.90
2023-04-10T02:45:52.396Z,99.90
2023-04-10T02:48:28.240Z,99.90
2023-04-10T02:51:01.821Z,99.90
2023-04-10T02:53:31.101Z,99.90
2023-04-10T02:56:03.022Z,99.90
2023-04-10T02:58:32.336Z,99.90
2023-04-10T03:01:02.687Z,99.90
2023-04-10T03:03:47.526Z,99.90
2023-04-10T03:06:27.485Z,99.90
2023-04-10T03:08:58.166Z,99.90
2023-04-10T03:11:45.536Z,99.90
2023-04-10T03:14:14.499Z,99.90
2023-04-10T03:16:43.724Z,99.90
2023-04-10T03:19:14.137Z,99.90
2023-04-10T03:21:43.192Z,99.90
2023-04-10T03:24:12.312Z,99.90
2023-04-10T03:26:41.910Z,99.90
2023-04-10T03:29:10.772Z,99.90
2023-04-10T03:31:40.027Z,99.90
2023-04-10T03:34:09.137Z,99.90
2023-04-10T03:36:40.740Z,99.90
2023-04-10T03:39:10.169Z,99.90
2023-04-10T03:41:39.147Z,99.90
2023-04-10T03:44:08.117Z,99.90
2023-04-10T03:46:55.825Z,99.90
2023-04-10T03:49:25.092Z,99.90
2023-04-10T03:52:04.468Z,99.90
2023-04-10T03:54:33.754Z,99.90
2023-04-10T03:57:02.871Z,99.90
2023-04-10T03:59:38.602Z,99.90
2023-04-10T04:02:13.113Z,99.90
2023-04-10T04:04:44.582Z,99.90
2023-04-10T04:07:44.103Z,99.90
2023-04-10T04:10:22.487Z,99.90
2023-04-10T04:13:01.253Z,99.90
2023-04-10T04:15:50.553Z,99.90
2023-04-10T04:18:36.263Z,99.90
2023-04-10T04:21:28.471Z,99.90
2023-04-10T04:24:08.301Z,99.90
2023-04-10T04:27:13.045Z,99.90
2023-04-10T04:30:01.151Z,99.90
2023-04-10T04:32:56.620Z,99.90
2023-04-10T04:35:36.221Z,99.90
2023-04-10T04:38:23.666Z,99.90
2023-04-10T04:41:09.438Z,99.90
2023-04-10T04:43:45.285Z,99.90
2023-04-10T04:46:23.874Z,99.90
2023-04-10T04:49:02.347Z,99.90
2023-04-10T04:51:49.219Z,99.90
2023-04-10T04:54:37.457Z,99.90
2023-04-10T04:57:26.338Z,99.90
2023-04-10T05:00:14.619Z,99.90
2023-04-10T05:03:02.395Z,99.90
2023-04-10T05:05:38.801Z,99.90
2023-04-10T05:08:27.935Z,99.90
2023-04-10T05:11:08.347Z,99.90
2023-04-10T05:13:55.304Z,99.90
2023-04-10T05:16:47.877Z,99.90
2023-04-10T05:19:37.789Z,99.90
2023-04-10T05:22:33.024Z,99.90
2023-04-10T05:25:24.974Z,99.90
2023-04-10T05:28:09.434Z,99.90
2023-04-10T05:31:07.832Z,99.90
2023-04-10T05:33:41.550Z,99.90
2023-04-10T05:36:25.977Z,99.90
2023-04-10T05:39:18.791Z,99.90
2023-04-10T05:42:16.319Z,99.90
2023-04-10T05:44:56.195Z,99.90
2023-04-10T05:47:53.196Z,99.90
2023-04-10T05:50:30.593Z,99.90
2023-04-10T05:53:21.726Z,99.90
2023-04-10T05:56:16.806Z,99.90
2023-04-10T05:58:59.521Z,99.90
2023-04-10T06:02:07.765Z,99.90
2023-04-10T06:04:38.729Z,99.90
2023-04-10T06:07:40.661Z,99.90
2023-04-10T06:10:15.448Z,99.90
2023-04-10T06:12:47.458Z,99.90
2023-04-10T06:15:16.868Z,99.90
2023-04-10T06:17:46.028Z,99.90
2023-04-10T06:20:16.512Z,99.90
2023-04-10T06:22:45.637Z,99.90
2023-04-10T06:25:14.909Z,99.90
2023-04-10T06:27:43.957Z,99.90
2023-04-10T06:30:13.182Z,99.90
2023-04-10T06:32:42.954Z,99.90
2023-04-10T06:35:13.438Z,99.90
2023-04-10T06:37:44.792Z,99.90
2023-04-10T06:40:16.242Z,99.90
2023-04-10T06:42:53.554Z,99.90
2023-04-10T06:45:30.392Z,99.90
2023-04-10T06:47:59.493Z,99.90
2023-04-10T06:50:28.447Z,99.90
2023-04-10T06:53:00.246Z,99.90
2023-04-10T06:55:29.354Z,99.90
2023-04-10T06:57:58.269Z,99.90
2023-04-10T07:00:27.243Z,99.90
2023-04-10T07:03:14.521Z,99.90
2023-04-10T07:05:43.690Z,99.90
2023-04-10T07:08:32.521Z,99.90
2023-04-10T07:11:01.611Z,99.90
2023-04-10T07:13:30.638Z,99.90
2023-04-10T07:15:59.498Z,99.90
2023-04-10T07:18:28.537Z,99.90
2023-04-10T07:20:57.771Z,99.90
2023-04-10T07:23:26.631Z,99.90
2023-04-10T07:25:58.632Z,99.90
2023-04-10T07:28:27.630Z,99.90
2023-04-10T07:30:56.674Z,99.90
2023-04-10T07:33:26.471Z,99.90
2023-04-10T07:35:55.621Z,99.90
2023-04-10T07:38:24.836Z,99.90
2023-04-10T07:40:59.540Z,99.90
2023-04-10T07:43:28.676Z,99.90
2023-04-10T07:45:58.073Z,99.90
2023-04-10T07:48:27.205Z,99.90
2023-04-10T07:50:56.232Z,99.90
2023-04-10T07:53:25.044Z,99.90
2023-04-10T07:55:54.032Z,99.90
2023-04-10T07:58:24.933Z,99.90
2023-04-10T08:00:54.185Z,99.90
2023-04-10T08:03:23.765Z,99.90
2023-04-10T08:05:57.321Z,99.90
2023-04-10T08:08:46.566Z,99.90
2023-04-10T08:11:26.880Z,99.90
2023-04-10T08:13:58.369Z,99.90
2023-04-10T08:16:28.326Z,99.90
2023-04-10T08:18:58.403Z,99.90
2023-04-10T08:21:28.404Z,99.90
2023-04-10T08:24:02.168Z,99.90
2023-04-10T08:26:31.676Z,99.90
2023-04-10T08:29:02.421Z,99.90
2023-04-10T08:31:31.670Z,99.90
2023-04-10T08:34:00.790Z,99.90
2023-04-10T08:36:29.738Z,99.90
2023-04-10T08:38:58.704Z,99.90
2023-04-10T08:41:27.801Z,99.90
2023-04-10T08:43:58.385Z,99.90
2023-04-10T08:46:30.491Z,99.90
2023-04-10T08:49:03.553Z,99.90
2023-04-10T08:51:39.777Z,99.90
2023-04-10T08:54:20.850Z,99.90
2023-04-10T08:56:55.661Z,99.90
2023-04-10T08:59:43.425Z,99.90
2023-04-10T09:02:13.882Z,99.90
2023-04-10T09:04:48.956Z,99.90
2023-04-10T09:07:18.056Z,99.90
2023-04-10T09:09:47.087Z,99.90
2023-04-10T09:12:16.292Z,99.90
2023-04-10T09:14:45.633Z,99.90
2023-04-10T09:17:18.409Z,99.90
2023-04-10T09:19:48.443Z,99.90
2023-04-10T09:22:18.036Z,99.90
2023-04-10T09:24:48.007Z,99.90
2023-04-10T09:27:31.922Z,99.90
2023-04-10T09:30:01.171Z,99.90
2023-04-10T09:32:42.646Z,99.90
2023-04-10T09:35:12.718Z,99.90
2023-04-10T09:37:42.935Z,99.90
2023-04-10T09:40:23.093Z,99.90
2023-04-10T09:42:52.842Z,99.90
2023-04-10T09:45:23.104Z,99.90
2023-04-10T09:48:07.532Z,99.90
2023-04-10T09:50:39.850Z,99.90
2023-04-10T09:53:09.888Z,99.90
2023-04-10T09:55:39.086Z,99.90
2023-04-10T09:58:09.230Z,99.90
2023-04-10T10:00:42.074Z,99.90
2023-04-10T10:03:14.643Z,99.90
2023-04-10T10:05:45.636Z,99.90
2023-04-10T10:08:20.798Z,99.90
2023-04-10T10:11:15.938Z,99.90
2023-04-10T10:14:08.427Z,99.90
2023-04-10T10:16:43.690Z,99.90
2023-04-10T10:19:36.567Z,99.90
2023-04-10T10:22:12.798Z,99.90
2023-04-10T10:24:46.758Z,99.90
2023-04-10T10:27:40.978Z,99.90
2023-04-10T10:30:29.497Z,99.90
2023-04-10T10:33:11.217Z,99.90
2023-04-10T10:35:59.910Z,99.90
2023-04-10T10:38:29.930Z,99.90
2023-04-10T10:41:13.885Z,99.90
2023-04-10T10:44:06.245Z,99.90
2023-04-10T10:46:55.982Z,99.90
2023-04-10T10:49:58.212Z,99.90
2023-04-10T10:52:55.018Z,99.90
2023-04-10T10:55:39.320Z,99.90
2023-04-10T10:58:19.011Z,99.90
2023-04-10T11:01:12.227Z,99.90
2023-04-10T11:03:44.994Z,99.90
2023-04-10T11:06:23.477Z,99.90
2023-04-10T11:09:00.052Z,99.90
2023-04-10T11:12:00.885Z,99.90
2023-04-10T11:14:32.869Z,99.90
2023-04-10T11:17:02.054Z,99.90
2023-04-10T11:19:56.727Z,99.90
2023-04-10T11:22:29.908Z,99.90
2023-04-10T11:25:02.746Z,99.90
2023-04-10T11:27:46.611Z,99.90
2023-04-10T11:30:37.189Z,99.90
2023-04-10T11:33:07.323Z,99.90
2023-04-10T11:35:36.466Z,99.90
2023-04-10T11:38:13.136Z,99.90
2023-04-10T11:41:04.983Z,99.90
2023-04-10T11:43:36.068Z,99.90
2023-04-10T11:46:08.012Z,99.90
2023-04-10T11:48:38.274Z,99.90
2023-04-10T11:51:12.206Z,99.90
2023-04-10T11:53:41.425Z,99.90
2023-04-10T11:56:19.841Z,99.90
2023-04-10T11:58:55.819Z,99.90
2023-04-10T12:01:26.715Z,99.90
2023-04-10T12:03:56.890Z,99.90
2023-04-10T12:06:32.654Z,99.90
2023-04-10T12:09:03.223Z,99.90
2023-04-10T12:11:34.535Z,99.90
2023-04-10T12:14:04.387Z,99.90
2023-04-10T12:16:35.676Z,99.90
2023-04-10T12:19:09.162Z,99.90
2023-04-10T12:21:45.563Z,99.90
2023-04-10T12:24:46.328Z,99.90
2023-04-10T12:27:22.269Z,99.90
2023-04-10T12:29:53.535Z,99.90
2023-04-10T12:32:23.860Z,99.90
2023-04-10T12:34:53.357Z,99.90
2023-04-10T12:37:22.577Z,99.90
2023-04-10T12:39:52.130Z,99.90
2023-04-10T12:42:23.806Z,99.90
2023-04-10T12:44:54.726Z,99.90
2023-04-10T12:47:25.139Z,99.90
2023-04-10T12:50:07.997Z,99.90
2023-04-10T12:52:37.951Z,99.90
2023-04-10T12:55:12.875Z,99.90
2023-04-10T12:57:44.812Z,99.90
2023-04-10T13:00:16.760Z,99.90
2023-04-10T13:02:46.565Z,99.90
2023-04-10T13:05:16.219Z,99.90
2023-04-10T13:07:45.724Z,99.90
2023-04-10T13:10:14.745Z,99.90
2023-04-10T13:12:45.237Z,99.90
2023-04-10T13:15:14.143Z,99.90
2023-04-10T13:17:43.416Z,99.80
2023-04-10T13:20:13.646Z,99.50
2023-04-10T13:22:42.735Z,99.50
2023-04-10T13:25:11.865Z,99.10
2023-04-10T13:27:40.867Z,99.00
2023-04-10T13:30:12.245Z,98.80
2023-04-10T13:32:41.466Z,98.80
2023-04-10T13:35:10.975Z,98.60
2023-04-10T13:37:40.168Z,98.20
2023-04-10T13:40:11.031Z,97.90
2023-04-10T13:42:41.987Z,97.70
2023-04-10T13:45:13.621Z,97.80
2023-04-10T13:47:42.816Z,97.80
2023-04-10T13:50:12.721Z,97.70
2023-04-10T13:52:41.736Z,97.70
2023-04-10T13:55:11.559Z,97.70
2023-04-10T13:57:40.520Z,97.80
2023-04-10T14:00:13.099Z,97.80
2023-04-10T14:02:42.389Z,97.90
2023-04-10T14:05:12.263Z,97.70
2023-04-10T14:07:41.291Z,97.70
2023-04-10T14:10:11.325Z,97.80
2023-04-10T14:12:40.259Z,97.70
2023-04-10T14:15:10.173Z,97.70
2023-04-10T14:17:40.622Z,97.70
2023-04-10T14:20:11.700Z,97.70
2023-04-10T14:22:40.696Z,97.80
2023-04-10T14:25:16.142Z,97.80
2023-04-10T14:27:45.805Z,97.90
2023-04-10T14:30:15.206Z,98.00
2023-04-10T14:32:45.620Z,98.10
2023-04-10T14:35:14.759Z,98.20
2023-04-10T14:37:44.336Z,98.30
2023-04-10T14:40:13.542Z,98.50
2023-04-10T14:42:42.501Z,98.60
2023-04-10T14:45:12.417Z,98.80
2023-04-10T14:47:42.049Z,98.80
2023-04-10T14:50:13.273Z,99.00
2023-04-10T14:52:42.277Z,99.10
2023-04-10T14:55:12.064Z,99.20
2023-04-10T14:57:41.534Z,99.30
2023-04-10T15:00:29.984Z,99.30
2023-04-10T15:02:59.295Z,99.40
2023-04-10T15:05:30.196Z,99.50
2023-04-10T15:07:59.094Z,99.50
2023-04-10T15:10:30.268Z,99.60
2023-04-10T15:12:59.302Z,99.70
2023-04-10T15:15:28.153Z,99.70
2023-04-10T15:17:57.225Z,99.80
2023-04-10T15:20:26.375Z,99.80
2023-04-10T15:22:56.658Z,99.90
2023-04-10T15:25:25.633Z,99.90
2023-04-10T15:27:56.834Z,99.90
2023-04-10T15:30:26.123Z,99.90
2023-04-10T15:32:55.098Z,99.90
2023-04-10T15:35:25.077Z,99.90
2023-04-10T15:37:55.737Z,99.90
2023-04-10T15:40:24.859Z,99.90
2023-04-10T15:42:53.824Z,99.90
2023-04-10T15:45:26.736Z,99.90
2023-04-10T15:47:59.480Z,99.90
2023-04-10T15:50:28.773Z,99.90
2023-04-10T15:53:01.089Z,99.90
2023-04-10T15:55:30.740Z,99.90
2023-04-10T15:58:02.416Z,99.90
2023-04-10T16:00:33.374Z,99.90
2023-04-10T16:03:02.672Z,99.90
2023-04-10T16:05:34.840Z,99.90
2023-04-10T16:08:08.162Z,99.90
2023-04-10T16:10:38.031Z,99.90
2023-04-10T16:13:25.245Z,99.90
2023-04-10T16:15:54.357Z,99.90
2023-04-10T16:18:23.570Z,99.90
2023-04-10T16:20:52.392Z,99.90
2023-04-10T16:23:22.950Z,99.90
2023-04-10T16:25:52.222Z,99.90
2023-04-10T16:28:22.996Z,99.90
2023-04-10T16:30:51.948Z,99.90
2023-04-10T16:33:20.988Z,99.90
2023-04-10T16:35:49.927Z,99.90
2023-04-10T16:38:18.922Z,99.90
2023-04-10T16:40:49.595Z,99.90
2023-04-10T16:43:18.570Z,99.90
2023-04-10T16:45:47.438Z,99.90
2023-04-10T16:48:16.440Z,99.90
2023-04-10T16:50:46.046Z,99.90
2023-04-10T16:53:16.306Z,99.90
2023-04-10T16:55:45.608Z,99.90
2023-04-10T16:58:16.017Z,99.90
2023-04-10T17:00:45.022Z,99.90
2023-04-10T17:03:14.061Z,99.90
2023-04-10T17:05:43.106Z,99.90
2023-04-10T17:08:12.170Z,99.90
2023-04-10T17:10:41.013Z,99.90
2023-04-10T17:13:10.062Z,99.90
2023-04-10T17:15:40.479Z,99.90
2023-04-10T17:18:10.010Z,99.90
2023-04-10T17:20:38.899Z,99.90
2023-04-10T17:23:07.870Z,99.90
2023-04-10T17:25:41.039Z,99.90
2023-04-10T17:28:12.013Z,99.90
2023-04-10T17:30:44.101Z,99.90
2023-04-10T17:33:14.155Z,99.90
2023-04-10T17:35:44.190Z,99.90
2023-04-10T17:38:16.323Z,99.90
2023-04-10T17:40:45.427Z,99.90
2023-04-10T17:43:14.374Z,99.90
2023-04-10T17:45:44.945Z,99.90
2023-04-10T17:48:13.995Z,99.90
2023-04-10T17:50:43.193Z,99.90
2023-04-10T17:53:12.161Z,99.90
2023-04-10T17:55:59.794Z,99.90
2023-04-10T17:58:28.900Z,99.90
2023-04-10T18:00:59.452Z,99.90
2023-04-10T18:03:28.668Z,99.90
2023-04-10T18:05:57.674Z,99.90
2023-04-10T18:08:26.850Z,99.90
2023-04-10T18:10:56.196Z,99.90
2023-04-10T18:13:25.123Z,99.90
2023-04-10T18:15:54.026Z,99.90
2023-04-10T18:18:24.797Z,99.90
2023-04-10T18:20:53.792Z,99.90
2023-04-10T18:23:24.363Z,99.90
2023-04-10T18:25:56.462Z,99.90
2023-04-10T18:28:25.547Z,99.90
2023-04-10T18:30:59.913Z,99.90
2023-04-10T18:33:36.178Z,99.90
2023-04-10T18:36:05.217Z,99.90
2023-04-10T18:38:35.861Z,99.90
2023-04-10T18:41:05.002Z,99.90
2023-04-10T18:43:35.139Z,99.90
2023-04-10T18:46:07.608Z,99.90
2023-04-10T18:48:44.690Z,99.90
2023-04-10T18:51:13.826Z,99.90
2023-04-10T18:53:43.047Z,99.90
2023-04-10T18:56:12.184Z,99.90
2023-04-10T18:58:41.901Z,99.90
2023-04-10T19:01:11.587Z,99.90
2023-04-10T19:03:41.018Z,99.90
2023-04-10T19:06:12.597Z,99.90
2023-04-10T19:08:42.402Z,99.90
2023-04-10T19:11:12.420Z,99.90
2023-04-10T19:13:41.870Z,99.90
2023-04-10T19:16:14.684Z,99.90
2023-04-10T19:18:43.865Z,99.90
2023-04-10T19:21:14.257Z,99.90
2023-04-10T19:23:43.640Z,99.90
2023-04-10T19:26:12.993Z,99.90
2023-04-10T19:28:41.841Z,99.90
2023-04-10T19:31:11.115Z,99.90
2023-04-10T19:33:40.242Z,99.90
2023-04-10T19:36:09.983Z,99.90
2023-04-10T19:38:41.206Z,99.90
2023-04-10T19:41:17.370Z,99.90
2023-04-10T19:43:46.593Z,99.90
2023-04-10T19:46:20.893Z,99.90
2023-04-10T19:48:52.283Z,99.90
2023-04-10T19:51:21.487Z,99.90
2023-04-10T19:53:51.995Z,99.90
2023-04-10T19:56:21.318Z,99.90
2023-04-10T19:58:56.218Z,99.90
2023-04-10T20:01:25.380Z,99.90
2023-04-10T20:03:54.551Z,99.90
2023-04-10T20:06:24.264Z,99.90
2023-04-10T20:08:54.923Z,99.90
2023-04-10T20:11:25.050Z,99.90
2023-04-10T20:13:53.980Z,99.90
2023-04-10T20:16:24.276Z,99.90
2023-04-10T20:18:54.589Z,99.90
2023-04-10T20:21:23.828Z,99.90
2023-04-10T20:23:54.161Z,99.90
2023-04-10T20:26:23.619Z,99.90
2023-04-10T20:28:52.948Z,99.90
2023-04-10T20:31:23.326Z,99.90
2023-04-10T20:33:54.216Z,99.90
2023-04-10T20:36:23.543Z,99.90
2023-04-10T20:38:54.643Z,99.90
2023-04-10T20:41:26.261Z,99.90
2023-04-10T20:43:57.788Z,99.90
2023-04-10T20:46:27.869Z,99.90
2023-04-10T20:48:59.395Z,99.90
2023-04-10T20:51:29.218Z,99.90
2023-04-10T20:54:00.365Z,99.90
2023-04-10T20:56:36.705Z,99.90
2023-04-10T20:59:12.041Z,99.90
2023-04-10T21:01:41.979Z,99.90
2023-04-10T21:04:11.629Z,99.90
2023-04-10T21:06:40.767Z,99.90
2023-04-10T21:09:11.363Z,99.90
2023-04-10T21:11:40.393Z,99.90
2023-04-10T21:14:09.330Z,99.90
2023-04-10T21:16:42.704Z,99.90
2023-04-10T21:19:11.974Z,99.90
2023-04-10T21:21:40.971Z,99.90
2023-04-10T21:24:11.714Z,99.90
2023-04-10T21:26:40.742Z,99.90
2023-04-10T21:29:09.617Z,99.90
2023-04-10T21:31:38.685Z,99.90
2023-04-10T21:34:07.801Z,99.90
2023-04-10T21:36:36.825Z,99.90
2023-04-10T21:39:09.322Z,99.90
2023-04-10T21:41:40.637Z,99.90
2023-04-10T21:44:09.776Z,99.90
2023-04-10T21:46:38.692Z,99.90
2023-04-10T21:49:07.754Z,99.90
2023-04-10T21:51:37.083Z,99.90
2023-04-10T21:54:06.492Z,99.90
2023-04-10T21:56:37.059Z,99.90
2023-04-10T21:59:07.594Z,99.90
2023-04-10T22:01:37.154Z,99.90
2023-04-10T22:04:06.638Z,99.90
2023-04-10T22:06:35.769Z,99.90
2023-04-10T22:09:04.753Z,99.90
2023-04-10T22:11:34.099Z,99.90
2023-04-10T22:14:15.988Z,99.90
2023-04-10T22:16:47.999Z,99.90
2023-04-10T22:19:17.032Z,99.90
2023-04-10T22:21:45.991Z,99.90
2023-04-10T22:24:14.863Z,99.90
2023-04-10T22:26:46.233Z,99.90
2023-04-10T22:29:15.872Z,99.90
2023-04-10T22:31:46.846Z,99.90
2023-04-10T22:34:15.745Z,99.90
2023-04-10T22:36:44.688Z,99.90
2023-04-10T22:39:13.649Z,99.90
2023-04-10T22:41:46.691Z,99.90
2023-04-10T22:44:15.809Z,99.90
2023-04-10T22:46:45.818Z,99.90
2023-04-10T22:49:17.375Z,99.90
2023-04-10T22:51:46.957Z,99.90
2023-04-10T22:54:16.345Z,99.90
2023-04-10T22:56:45.900Z,99.90
2023-04-10T22:59:15.636Z,99.90
2023-04-10T23:01:45.164Z,99.90
2023-04-10T23:04:15.945Z,99.90
2023-04-10T23:06:45.229Z,99.90
2023-04-10T23:09:14.279Z,99.90
2023-04-10T23:11:43.431Z,99.90
2023-04-10T23:14:12.795Z,99.90
2023-04-10T23:16:41.880Z,99.90
2023-04-10T23:19:10.873Z,99.90
2023-04-10T23:21:41.213Z,99.90
2023-04-10T23:24:10.278Z,99.90
2023-04-10T23:26:39.206Z,99.90
2023-04-10T23:29:08.193Z,99.90
2023-04-10T23:31:37.442Z,99.90
2023-04-10T23:34:06.323Z,99.90
2023-04-10T23:36:35.244Z,99.90
2023-04-10T23:39:05.861Z,99.90
2023-04-10T23:41:35.555Z,99.90
2023-04-10T23:44:04.509Z,99.90
2023-04-10T23:46:33.524Z,99.90
2023-04-10T23:49:02.443Z,99.90
2023-04-10T23:51:32.114Z,99.90
2023-04-10T23:54:01.262Z,99.90
2023-04-10T23:56:31.646Z,99.90
2023-04-10T23:59:00.550Z,99.90
